sensor_id;sensor_type;location;lat;lon;timestamp;P1;durP1;ratioP1;P2;durP2;ratioP2
12567;SDS011;6349;50.904;6.136;2022-09-27T00:00:29;1.70;;;0.93;;
12567;SDS011;6349;50.904;6.136;2022-09-27T00:02:29;2.37;;;1.00;;
12567;SDS011;6349;50.904;6.136;2022-09-27T00:04:30;1.07;;;0.90;;
12567;SDS011;6349;50.904;6.136;2022-09-27T00:06:31;2.50;;;0.90;;
12567;SDS011;6349;50.904;6.136;2022-09-27T00:08:32;0.80;;;0.80;;
12567;SDS011;6349;50.904;6.136;2022-09-27T00:10:33;1.17;;;0.90;;
12567;SDS011;6349;50.904;6.136;2022-09-27T00:12:34;2.07;;;1.20;;
12567;SDS011;6349;50.904;6.136;2022-09-27T00:14:35;1.37;;;0.90;;
12567;SDS011;6349;50.904;6.136;2022-09-27T00:16:37;1.43;;;0.97;;
12567;SDS011;6349;50.904;6.136;2022-09-27T00:18:39;1.43;;;0.70;;
12567;SDS011;6349;50.904;6.136;2022-09-27T00:20:39;1.93;;;1.03;;
12567;SDS011;6349;50.904;6.136;2022-09-27T00:22:40;3.83;;;1.10;;
12567;SDS011;6349;50.904;6.136;2022-09-27T00:24:41;3.17;;;1.40;;
12567;SDS011;6349;50.904;6.136;2022-09-27T00:26:41;1.07;;;0.93;;
12567;SDS011;6349;50.904;6.136;2022-09-27T00:28:42;3.87;;;1.60;;
12567;SDS011;6349;50.904;6.136;2022-09-27T00:30:43;2.83;;;1.20;;
12567;SDS011;6349;50.904;6.136;2022-09-27T00:32:44;2.80;;;1.30;;
12567;SDS011;6349;50.904;6.136;2022-09-27T00:34:45;1.37;;;1.27;;
12567;SDS011;6349;50.904;6.136;2022-09-27T00:36:45;1.73;;;1.40;;
12567;SDS011;6349;50.904;6.136;2022-09-27T00:38:47;2.23;;;1.80;;
12567;SDS011;6349;50.904;6.136;2022-09-27T00:40:47;4.17;;;1.90;;
12567;SDS011;6349;50.904;6.136;2022-09-27T00:42:48;1.97;;;1.67;;
12567;SDS011;6349;50.904;6.136;2022-09-27T00:44:57;3.70;;;1.90;;
12567;SDS011;6349;50.904;6.136;2022-09-27T00:47:02;2.60;;;1.70;;
12567;SDS011;6349;50.904;6.136;2022-09-27T00:49:27;2.17;;;1.70;;
12567;SDS011;6349;50.904;6.136;2022-09-27T00:51:32;1.83;;;1.70;;
12567;SDS011;6349;50.904;6.136;2022-09-27T00:53:39;1.70;;;1.43;;
12567;SDS011;6349;50.904;6.136;2022-09-27T00:55:48;1.70;;;1.60;;
12567;SDS011;6349;50.904;6.136;2022-09-27T00:57:53;2.27;;;1.70;;
12567;SDS011;6349;50.904;6.136;2022-09-27T00:59:59;2.50;;;1.50;;
12567;SDS011;6349;50.904;6.136;2022-09-27T01:02:07;4.23;;;1.90;;
12567;SDS011;6349;50.904;6.136;2022-09-27T01:04:09;4.07;;;1.73;;
12567;SDS011;6349;50.904;6.136;2022-09-27T01:06:11;1.60;;;1.50;;
12567;SDS011;6349;50.904;6.136;2022-09-27T01:08:13;2.53;;;1.53;;
12567;SDS011;6349;50.904;6.136;2022-09-27T01:10:14;1.93;;;1.53;;
12567;SDS011;6349;50.904;6.136;2022-09-27T01:17:20;2.70;;;1.90;;
12567;SDS011;6349;50.904;6.136;2022-09-27T01:19:45;2.23;;;1.57;;
12567;SDS011;6349;50.904;6.136;2022-09-27T01:22:14;3.43;;;1.97;;
12567;SDS011;6349;50.904;6.136;2022-09-27T01:34:58;3.27;;;1.30;;
12567;SDS011;6349;50.904;6.136;2022-09-27T01:39:31;1.53;;;1.20;;
12567;SDS011;6349;50.904;6.136;2022-09-27T01:41:57;1.00;;;0.80;;
12567;SDS011;6349;50.904;6.136;2022-09-27T01:44:27;2.53;;;1.10;;
12567;SDS011;6349;50.904;6.136;2022-09-27T01:47:07;1.10;;;0.80;;
12567;SDS011;6349;50.904;6.136;2022-09-27T01:48:55;1.53;;;0.80;;
12567;SDS011;6349;50.904;6.136;2022-09-27T01:51:02;2.20;;;0.90;;
12567;SDS011;6349;50.904;6.136;2022-09-27T01:53:11;1.53;;;0.70;;
12567;SDS011;6349;50.904;6.136;2022-09-27T01:55:18;2.40;;;0.73;;
12567;SDS011;6349;50.904;6.136;2022-09-27T01:57:23;1.07;;;0.83;;
12567;SDS011;6349;50.904;6.136;2022-09-27T01:59:32;1.37;;;0.90;;
12567;SDS011;6349;50.904;6.136;2022-09-27T02:01:41;1.00;;;0.90;;
12567;SDS011;6349;50.904;6.136;2022-09-27T02:03:46;1.60;;;1.00;;
12567;SDS011;6349;50.904;6.136;2022-09-27T02:05:52;2.23;;;1.10;;
12567;SDS011;6349;50.904;6.136;2022-09-27T02:08:01;2.63;;;1.00;;
12567;SDS011;6349;50.904;6.136;2022-09-27T02:10:11;1.77;;;0.80;;
12567;SDS011;6349;50.904;6.136;2022-09-27T02:12:19;1.90;;;0.80;;
12567;SDS011;6349;50.904;6.136;2022-09-27T02:14:30;1.27;;;0.67;;
12567;SDS011;6349;50.904;6.136;2022-09-27T02:16:51;2.47;;;0.83;;
12567;SDS011;6349;50.904;6.136;2022-09-27T02:21:20;1.13;;;0.70;;
12567;SDS011;6349;50.904;6.136;2022-09-27T02:23:38;1.47;;;1.07;;
12567;SDS011;6349;50.904;6.136;2022-09-27T02:25:43;1.13;;;1.00;;
12567;SDS011;6349;50.904;6.136;2022-09-27T02:27:59;2.47;;;1.10;;
12567;SDS011;6349;50.904;6.136;2022-09-27T02:30:21;1.10;;;0.90;;
12567;SDS011;6349;50.904;6.136;2022-09-27T02:32:22;1.90;;;1.17;;
12567;SDS011;6349;50.904;6.136;2022-09-27T02:34:25;1.03;;;0.77;;
12567;SDS011;6349;50.904;6.136;2022-09-27T02:36:28;2.23;;;0.87;;
12567;SDS011;6349;50.904;6.136;2022-09-27T02:38:29;1.60;;;0.97;;
12567;SDS011;6349;50.904;6.136;2022-09-27T02:40:33;2.10;;;1.07;;
12567;SDS011;6349;50.904;6.136;2022-09-27T02:42:35;0.77;;;0.77;;
12567;SDS011;6349;50.904;6.136;2022-09-27T02:44:36;1.00;;;0.90;;
12567;SDS011;6349;50.904;6.136;2022-09-27T02:46:46;1.83;;;1.20;;
12567;SDS011;6349;50.904;6.136;2022-09-27T02:49:17;2.67;;;1.20;;
12567;SDS011;6349;50.904;6.136;2022-09-27T02:54:17;2.23;;;1.20;;
12567;SDS011;6349;50.904;6.136;2022-09-27T03:01:50;1.43;;;1.10;;
12567;SDS011;6349;50.904;6.136;2022-09-27T03:04:16;1.40;;;1.20;;
12567;SDS011;6349;50.904;6.136;2022-09-27T03:06:22;1.63;;;0.90;;
12567;SDS011;6349;50.904;6.136;2022-09-27T03:08:24;1.87;;;1.27;;
12567;SDS011;6349;50.904;6.136;2022-09-27T03:10:26;1.87;;;1.20;;
12567;SDS011;6349;50.904;6.136;2022-09-27T03:12:27;2.20;;;1.10;;
12567;SDS011;6349;50.904;6.136;2022-09-27T03:14:28;2.20;;;1.40;;
12567;SDS011;6349;50.904;6.136;2022-09-27T03:16:29;1.77;;;1.10;;
12567;SDS011;6349;50.904;6.136;2022-09-27T03:18:29;1.70;;;1.30;;
12567;SDS011;6349;50.904;6.136;2022-09-27T03:20:30;1.70;;;1.10;;
12567;SDS011;6349;50.904;6.136;2022-09-27T03:22:31;2.03;;;1.33;;
12567;SDS011;6349;50.904;6.136;2022-09-27T03:24:32;4.23;;;1.20;;
12567;SDS011;6349;50.904;6.136;2022-09-27T03:26:32;1.63;;;1.10;;
12567;SDS011;6349;50.904;6.136;2022-09-27T03:28:33;1.70;;;1.20;;
12567;SDS011;6349;50.904;6.136;2022-09-27T03:30:34;2.13;;;1.17;;
12567;SDS011;6349;50.904;6.136;2022-09-27T03:32:35;2.73;;;1.37;;
12567;SDS011;6349;50.904;6.136;2022-09-27T03:34:36;2.03;;;1.23;;
12567;SDS011;6349;50.904;6.136;2022-09-27T03:36:37;2.03;;;1.33;;
12567;SDS011;6349;50.904;6.136;2022-09-27T03:38:37;2.90;;;1.50;;
12567;SDS011;6349;50.904;6.136;2022-09-27T03:40:38;2.13;;;1.50;;
12567;SDS011;6349;50.904;6.136;2022-09-27T03:42:39;1.63;;;1.20;;
12567;SDS011;6349;50.904;6.136;2022-09-27T03:44:40;3.13;;;1.47;;
12567;SDS011;6349;50.904;6.136;2022-09-27T03:46:41;2.30;;;1.40;;
12567;SDS011;6349;50.904;6.136;2022-09-27T03:48:42;1.40;;;1.20;;
12567;SDS011;6349;50.904;6.136;2022-09-27T03:50:42;2.27;;;1.40;;
12567;SDS011;6349;50.904;6.136;2022-09-27T03:52:43;2.53;;;1.50;;
12567;SDS011;6349;50.904;6.136;2022-09-27T03:54:44;1.90;;;1.20;;
12567;SDS011;6349;50.904;6.136;2022-09-27T03:56:45;2.23;;;1.20;;
12567;SDS011;6349;50.904;6.136;2022-09-27T03:58:46;1.23;;;1.13;;
12567;SDS011;6349;50.904;6.136;2022-09-27T04:00:47;2.43;;;1.10;;
12567;SDS011;6349;50.904;6.136;2022-09-27T04:02:48;1.23;;;1.00;;
12567;SDS011;6349;50.904;6.136;2022-09-27T04:04:49;2.37;;;1.43;;
12567;SDS011;6349;50.904;6.136;2022-09-27T04:06:50;1.30;;;1.10;;
12567;SDS011;6349;50.904;6.136;2022-09-27T04:08:50;3.93;;;1.03;;
12567;SDS011;6349;50.904;6.136;2022-09-27T04:10:51;1.63;;;0.87;;
12567;SDS011;6349;50.904;6.136;2022-09-27T04:12:52;1.87;;;1.00;;
12567;SDS011;6349;50.904;6.136;2022-09-27T04:14:53;1.47;;;0.97;;
12567;SDS011;6349;50.904;6.136;2022-09-27T04:16:54;1.00;;;0.80;;
12567;SDS011;6349;50.904;6.136;2022-09-27T04:18:55;1.20;;;0.80;;
12567;SDS011;6349;50.904;6.136;2022-09-27T04:20:56;1.47;;;0.90;;
12567;SDS011;6349;50.904;6.136;2022-09-27T04:22:56;2.57;;;0.80;;
12567;SDS011;6349;50.904;6.136;2022-09-27T04:24:57;1.07;;;0.83;;
12567;SDS011;6349;50.904;6.136;2022-09-27T04:26:58;2.00;;;1.40;;
12567;SDS011;6349;50.904;6.136;2022-09-27T04:29:00;0.97;;;0.83;;
12567;SDS011;6349;50.904;6.136;2022-09-27T04:31:01;2.73;;;1.00;;
12567;SDS011;6349;50.904;6.136;2022-09-27T04:33:01;1.87;;;1.00;;
12567;SDS011;6349;50.904;6.136;2022-09-27T04:35:03;2.33;;;1.00;;
12567;SDS011;6349;50.904;6.136;2022-09-27T04:37:24;2.97;;;0.83;;
12567;SDS011;6349;50.904;6.136;2022-09-27T04:39:26;1.83;;;1.00;;
12567;SDS011;6349;50.904;6.136;2022-09-27T04:41:27;1.20;;;0.80;;
12567;SDS011;6349;50.904;6.136;2022-09-27T04:43:29;2.60;;;0.90;;
12567;SDS011;6349;50.904;6.136;2022-09-27T04:45:30;2.07;;;0.97;;
12567;SDS011;6349;50.904;6.136;2022-09-27T04:47:30;2.70;;;1.10;;
12567;SDS011;6349;50.904;6.136;2022-09-27T04:49:33;1.37;;;0.90;;
12567;SDS011;6349;50.904;6.136;2022-09-27T04:51:34;2.13;;;1.10;;
12567;SDS011;6349;50.904;6.136;2022-09-27T04:53:35;1.47;;;0.80;;
12567;SDS011;6349;50.904;6.136;2022-09-27T04:55:35;1.67;;;0.70;;
12567;SDS011;6349;50.904;6.136;2022-09-27T04:57:37;1.97;;;0.80;;
12567;SDS011;6349;50.904;6.136;2022-09-27T04:59:37;3.17;;;1.00;;
12567;SDS011;6349;50.904;6.136;2022-09-27T05:01:39;2.30;;;0.77;;
12567;SDS011;6349;50.904;6.136;2022-09-27T05:03:40;1.90;;;0.90;;
12567;SDS011;6349;50.904;6.136;2022-09-27T05:05:41;2.33;;;1.10;;
12567;SDS011;6349;50.904;6.136;2022-09-27T05:07:41;2.00;;;1.07;;
12567;SDS011;6349;50.904;6.136;2022-09-27T05:09:42;1.83;;;1.00;;
12567;SDS011;6349;50.904;6.136;2022-09-27T05:11:44;1.97;;;0.83;;
12567;SDS011;6349;50.904;6.136;2022-09-27T05:13:44;1.43;;;0.70;;
12567;SDS011;6349;50.904;6.136;2022-09-27T05:15:45;1.70;;;0.70;;
12567;SDS011;6349;50.904;6.136;2022-09-27T05:17:46;1.60;;;1.00;;
12567;SDS011;6349;50.904;6.136;2022-09-27T05:19:47;1.43;;;0.90;;
12567;SDS011;6349;50.904;6.136;2022-09-27T05:21:48;1.73;;;0.93;;
12567;SDS011;6349;50.904;6.136;2022-09-27T05:23:49;2.40;;;0.97;;
12567;SDS011;6349;50.904;6.136;2022-09-27T05:25:50;3.00;;;0.90;;
12567;SDS011;6349;50.904;6.136;2022-09-27T05:27:54;1.03;;;0.70;;
12567;SDS011;6349;50.904;6.136;2022-09-27T05:29:55;1.53;;;0.90;;
12567;SDS011;6349;50.904;6.136;2022-09-27T05:31:55;1.50;;;0.90;;
12567;SDS011;6349;50.904;6.136;2022-09-27T05:33:56;1.23;;;0.70;;
12567;SDS011;6349;50.904;6.136;2022-09-27T05:35:57;1.07;;;0.60;;
12567;SDS011;6349;50.904;6.136;2022-09-27T05:37:58;1.77;;;0.73;;
12567;SDS011;6349;50.904;6.136;2022-09-27T05:39:59;1.60;;;0.70;;
12567;SDS011;6349;50.904;6.136;2022-09-27T05:42:00;1.57;;;0.80;;
12567;SDS011;6349;50.904;6.136;2022-09-27T05:44:03;1.33;;;0.70;;
12567;SDS011;6349;50.904;6.136;2022-09-27T05:46:04;0.60;;;0.60;;
12567;SDS011;6349;50.904;6.136;2022-09-27T05:48:05;2.07;;;0.67;;
12567;SDS011;6349;50.904;6.136;2022-09-27T05:50:06;0.60;;;0.60;;
12567;SDS011;6349;50.904;6.136;2022-09-27T05:52:07;1.63;;;0.77;;
12567;SDS011;6349;50.904;6.136;2022-09-27T05:54:08;1.70;;;0.60;;
12567;SDS011;6349;50.904;6.136;2022-09-27T05:56:09;1.33;;;0.57;;
12567;SDS011;6349;50.904;6.136;2022-09-27T05:58:10;1.40;;;0.70;;
12567;SDS011;6349;50.904;6.136;2022-09-27T06:00:15;2.00;;;0.60;;
12567;SDS011;6349;50.904;6.136;2022-09-27T06:02:15;1.60;;;0.70;;
12567;SDS011;6349;50.904;6.136;2022-09-27T06:04:17;1.70;;;0.80;;
12567;SDS011;6349;50.904;6.136;2022-09-27T06:06:19;0.70;;;0.50;;
12567;SDS011;6349;50.904;6.136;2022-09-27T06:08:22;2.20;;;0.57;;
12567;SDS011;6349;50.904;6.136;2022-09-27T06:10:23;2.30;;;1.00;;
12567;SDS011;6349;50.904;6.136;2022-09-27T06:12:24;1.60;;;0.87;;
12567;SDS011;6349;50.904;6.136;2022-09-27T06:14:24;1.20;;;0.90;;
12567;SDS011;6349;50.904;6.136;2022-09-27T06:16:26;3.37;;;0.87;;
12567;SDS011;6349;50.904;6.136;2022-09-27T06:18:26;2.03;;;0.90;;
12567;SDS011;6349;50.904;6.136;2022-09-27T06:20:27;1.00;;;0.70;;
12567;SDS011;6349;50.904;6.136;2022-09-27T06:22:28;1.30;;;0.90;;
12567;SDS011;6349;50.904;6.136;2022-09-27T06:24:29;1.60;;;1.10;;
12567;SDS011;6349;50.904;6.136;2022-09-27T06:26:29;1.27;;;0.80;;
12567;SDS011;6349;50.904;6.136;2022-09-27T06:28:30;1.30;;;0.90;;
12567;SDS011;6349;50.904;6.136;2022-09-27T06:30:36;0.93;;;0.70;;
12567;SDS011;6349;50.904;6.136;2022-09-27T06:32:39;1.07;;;0.70;;
12567;SDS011;6349;50.904;6.136;2022-09-27T06:34:40;1.80;;;1.07;;
12567;SDS011;6349;50.904;6.136;2022-09-27T06:36:41;2.37;;;1.20;;
12567;SDS011;6349;50.904;6.136;2022-09-27T06:38:42;0.77;;;0.77;;
12567;SDS011;6349;50.904;6.136;2022-09-27T06:40:45;2.10;;;1.00;;
12567;SDS011;6349;50.904;6.136;2022-09-27T06:42:46;1.33;;;0.97;;
12567;SDS011;6349;50.904;6.136;2022-09-27T06:44:47;2.13;;;1.00;;
12567;SDS011;6349;50.904;6.136;2022-09-27T06:46:49;1.20;;;1.10;;
12567;SDS011;6349;50.904;6.136;2022-09-27T06:48:52;1.23;;;1.03;;
12567;SDS011;6349;50.904;6.136;2022-09-27T06:50:52;1.93;;;0.87;;
12567;SDS011;6349;50.904;6.136;2022-09-27T06:52:56;2.83;;;1.10;;
12567;SDS011;6349;50.904;6.136;2022-09-27T06:54:57;2.20;;;1.03;;
12567;SDS011;6349;50.904;6.136;2022-09-27T06:56:57;1.37;;;1.27;;
12567;SDS011;6349;50.904;6.136;2022-09-27T06:58:58;2.20;;;1.40;;
12567;SDS011;6349;50.904;6.136;2022-09-27T07:01:18;2.10;;;1.10;;
12567;SDS011;6349;50.904;6.136;2022-09-27T07:03:20;1.57;;;1.10;;
12567;SDS011;6349;50.904;6.136;2022-09-27T07:05:27;1.87;;;1.10;;
12567;SDS011;6349;50.904;6.136;2022-09-27T07:07:28;1.80;;;1.00;;
12567;SDS011;6349;50.904;6.136;2022-09-27T07:09:29;1.70;;;0.97;;
12567;SDS011;6349;50.904;6.136;2022-09-27T07:11:29;1.80;;;1.17;;
12567;SDS011;6349;50.904;6.136;2022-09-27T07:13:30;1.17;;;1.00;;
12567;SDS011;6349;50.904;6.136;2022-09-27T07:15:33;1.20;;;1.10;;
12567;SDS011;6349;50.904;6.136;2022-09-27T07:17:36;1.10;;;0.80;;
12567;SDS011;6349;50.904;6.136;2022-09-27T07:19:38;2.17;;;0.77;;
12567;SDS011;6349;50.904;6.136;2022-09-27T07:21:39;1.20;;;0.70;;
12567;SDS011;6349;50.904;6.136;2022-09-27T07:23:40;1.50;;;0.80;;
12567;SDS011;6349;50.904;6.136;2022-09-27T07:25:41;1.47;;;0.50;;
12567;SDS011;6349;50.904;6.136;2022-09-27T07:27:42;0.80;;;0.80;;
12567;SDS011;6349;50.904;6.136;2022-09-27T07:29:43;1.83;;;0.90;;
12567;SDS011;6349;50.904;6.136;2022-09-27T07:31:44;1.63;;;0.80;;
12567;SDS011;6349;50.904;6.136;2022-09-27T07:33:45;2.27;;;0.87;;
12567;SDS011;6349;50.904;6.136;2022-09-27T07:35:46;0.90;;;0.70;;
12567;SDS011;6349;50.904;6.136;2022-09-27T07:37:47;2.17;;;1.10;;
12567;SDS011;6349;50.904;6.136;2022-09-27T07:39:48;2.50;;;1.17;;
12567;SDS011;6349;50.904;6.136;2022-09-27T07:41:49;2.03;;;1.10;;
12567;SDS011;6349;50.904;6.136;2022-09-27T07:43:50;1.30;;;1.20;;
12567;SDS011;6349;50.904;6.136;2022-09-27T07:45:55;2.33;;;1.47;;
12567;SDS011;6349;50.904;6.136;2022-09-27T07:47:56;2.00;;;1.13;;
12567;SDS011;6349;50.904;6.136;2022-09-27T07:49:57;2.70;;;1.40;;
12567;SDS011;6349;50.904;6.136;2022-09-27T07:51:58;1.33;;;1.23;;
12567;SDS011;6349;50.904;6.136;2022-09-27T07:53:59;2.50;;;1.40;;
12567;SDS011;6349;50.904;6.136;2022-09-27T07:56:00;1.20;;;1.00;;
12567;SDS011;6349;50.904;6.136;2022-09-27T07:58:03;1.70;;;1.20;;
12567;SDS011;6349;50.904;6.136;2022-09-27T08:00:08;2.20;;;1.33;;
12567;SDS011;6349;50.904;6.136;2022-09-27T08:02:12;1.73;;;1.13;;
12567;SDS011;6349;50.904;6.136;2022-09-27T08:04:15;1.73;;;1.43;;
12567;SDS011;6349;50.904;6.136;2022-09-27T08:06:17;2.20;;;1.50;;
12567;SDS011;6349;50.904;6.136;2022-09-27T08:08:19;1.63;;;1.30;;
12567;SDS011;6349;50.904;6.136;2022-09-27T08:10:20;3.37;;;1.60;;
12567;SDS011;6349;50.904;6.136;2022-09-27T08:12:23;1.60;;;1.30;;
12567;SDS011;6349;50.904;6.136;2022-09-27T08:14:24;1.53;;;1.30;;
12567;SDS011;6349;50.904;6.136;2022-09-27T08:16:25;1.27;;;1.13;;
12567;SDS011;6349;50.904;6.136;2022-09-27T08:18:27;1.60;;;1.50;;
12567;SDS011;6349;50.904;6.136;2022-09-27T08:20:28;1.63;;;1.40;;
12567;SDS011;6349;50.904;6.136;2022-09-27T08:22:29;2.40;;;1.43;;
12567;SDS011;6349;50.904;6.136;2022-09-27T08:24:30;1.77;;;1.37;;
12567;SDS011;6349;50.904;6.136;2022-09-27T08:26:32;3.00;;;1.40;;
12567;SDS011;6349;50.904;6.136;2022-09-27T08:28:33;3.60;;;1.47;;
12567;SDS011;6349;50.904;6.136;2022-09-27T08:30:34;1.60;;;1.50;;
12567;SDS011;6349;50.904;6.136;2022-09-27T08:32:37;1.63;;;1.53;;
12567;SDS011;6349;50.904;6.136;2022-09-27T08:34:38;2.47;;;1.43;;
12567;SDS011;6349;50.904;6.136;2022-09-27T08:36:41;1.70;;;1.60;;
12567;SDS011;6349;50.904;6.136;2022-09-27T08:38:43;2.47;;;1.60;;
12567;SDS011;6349;50.904;6.136;2022-09-27T08:43:28;1.93;;;1.60;;
12567;SDS011;6349;50.904;6.136;2022-09-27T08:45:34;2.17;;;1.60;;
12567;SDS011;6349;50.904;6.136;2022-09-27T08:47:41;2.03;;;1.70;;
12567;SDS011;6349;50.904;6.136;2022-09-27T08:49:48;1.60;;;1.50;;
12567;SDS011;6349;50.904;6.136;2022-09-27T08:52:17;2.90;;;2.03;;
12567;SDS011;6349;50.904;6.136;2022-09-27T08:54:24;2.77;;;1.87;;
12567;SDS011;6349;50.904;6.136;2022-09-27T08:56:30;2.30;;;1.90;;
12567;SDS011;6349;50.904;6.136;2022-09-27T08:58:34;2.00;;;1.80;;
12567;SDS011;6349;50.904;6.136;2022-09-27T09:00:38;2.53;;;2.03;;
12567;SDS011;6349;50.904;6.136;2022-09-27T09:02:42;2.80;;;1.90;;
12567;SDS011;6349;50.904;6.136;2022-09-27T09:04:43;2.07;;;1.87;;
12567;SDS011;6349;50.904;6.136;2022-09-27T09:06:58;2.50;;;2.10;;
12567;SDS011;6349;50.904;6.136;2022-09-27T09:14:24;4.30;;;2.10;;
12567;SDS011;6349;50.904;6.136;2022-09-27T09:16:52;3.07;;;2.13;;
12567;SDS011;6349;50.904;6.136;2022-09-27T09:19:38;2.00;;;1.80;;
12567;SDS011;6349;50.904;6.136;2022-09-27T09:24:10;2.17;;;2.00;;
12567;SDS011;6349;50.904;6.136;2022-09-27T09:33:45;3.33;;;2.70;;
12567;SDS011;6349;50.904;6.136;2022-09-27T09:35:54;2.30;;;2.10;;
12567;SDS011;6349;50.904;6.136;2022-09-27T09:38:03;3.70;;;2.30;;
12567;SDS011;6349;50.904;6.136;2022-09-27T09:40:45;2.70;;;2.50;;
12567;SDS011;6349;50.904;6.136;2022-09-27T09:42:38;3.43;;;2.77;;
12567;SDS011;6349;50.904;6.136;2022-09-27T09:44:48;4.23;;;2.70;;
12567;SDS011;6349;50.904;6.136;2022-09-27T09:47:14;3.73;;;2.50;;
12567;SDS011;6349;50.904;6.136;2022-09-27T09:49:27;2.70;;;2.50;;
12567;SDS011;6349;50.904;6.136;2022-09-27T09:51:50;3.47;;;2.30;;
12567;SDS011;6349;50.904;6.136;2022-09-27T09:53:57;2.73;;;2.30;;
12567;SDS011;6349;50.904;6.136;2022-09-27T09:56:05;3.00;;;2.37;;
12567;SDS011;6349;50.904;6.136;2022-09-27T10:00:28;2.90;;;2.60;;
12567;SDS011;6349;50.904;6.136;2022-09-27T10:02:31;3.23;;;2.73;;
12567;SDS011;6349;50.904;6.136;2022-09-27T10:04:35;2.60;;;2.40;;
12567;SDS011;6349;50.904;6.136;2022-09-27T10:06:36;3.20;;;2.77;;
12567;SDS011;6349;50.904;6.136;2022-09-27T10:08:37;2.60;;;2.40;;
12567;SDS011;6349;50.904;6.136;2022-09-27T10:10:39;5.57;;;2.80;;
12567;SDS011;6349;50.904;6.136;2022-09-27T10:12:40;3.97;;;2.90;;
12567;SDS011;6349;50.904;6.136;2022-09-27T10:14:44;4.50;;;2.83;;
12567;SDS011;6349;50.904;6.136;2022-09-27T10:16:49;3.20;;;2.40;;
12567;SDS011;6349;50.904;6.136;2022-09-27T10:19:02;4.83;;;2.40;;
12567;SDS011;6349;50.904;6.136;2022-09-27T10:21:07;3.30;;;2.93;;
12567;SDS011;6349;50.904;6.136;2022-09-27T10:23:15;4.10;;;2.40;;
12567;SDS011;6349;50.904;6.136;2022-09-27T10:25:20;6.00;;;2.50;;
12567;SDS011;6349;50.904;6.136;2022-09-27T10:27:21;2.50;;;2.30;;
12567;SDS011;6349;50.904;6.136;2022-09-27T10:29:29;3.07;;;2.37;;
12567;SDS011;6349;50.904;6.136;2022-09-27T10:31:34;4.53;;;2.57;;
12567;SDS011;6349;50.904;6.136;2022-09-27T10:33:39;3.93;;;2.80;;
12567;SDS011;6349;50.904;6.136;2022-09-27T10:35:56;3.10;;;2.50;;
12567;SDS011;6349;50.904;6.136;2022-09-27T10:40:26;2.83;;;2.13;;
12567;SDS011;6349;50.904;6.136;2022-09-27T10:42:31;3.60;;;2.30;;
12567;SDS011;6349;50.904;6.136;2022-09-27T10:44:33;4.03;;;2.43;;
12567;SDS011;6349;50.904;6.136;2022-09-27T10:46:34;4.43;;;2.43;;
12567;SDS011;6349;50.904;6.136;2022-09-27T10:48:35;2.93;;;2.23;;
12567;SDS011;6349;50.904;6.136;2022-09-27T10:50:38;2.70;;;2.13;;
12567;SDS011;6349;50.904;6.136;2022-09-27T10:53:01;2.20;;;2.00;;
12567;SDS011;6349;50.904;6.136;2022-09-27T10:55:07;3.33;;;2.27;;
12567;SDS011;6349;50.904;6.136;2022-09-27T10:57:31;2.20;;;2.00;;
12567;SDS011;6349;50.904;6.136;2022-09-27T10:59:34;2.90;;;1.87;;
12567;SDS011;6349;50.904;6.136;2022-09-27T11:01:41;2.00;;;1.80;;
12567;SDS011;6349;50.904;6.136;2022-09-27T11:03:46;2.20;;;1.73;;
12567;SDS011;6349;50.904;6.136;2022-09-27T11:05:54;1.90;;;1.70;;
12567;SDS011;6349;50.904;6.136;2022-09-27T11:07:56;2.93;;;1.80;;
12567;SDS011;6349;50.904;6.136;2022-09-27T11:09:58;2.63;;;1.90;;
12567;SDS011;6349;50.904;6.136;2022-09-27T11:12:11;2.73;;;2.00;;
12567;SDS011;6349;50.904;6.136;2022-09-27T11:14:20;2.33;;;2.10;;
12567;SDS011;6349;50.904;6.136;2022-09-27T11:26:22;3.00;;;1.67;;
12567;SDS011;6349;50.904;6.136;2022-09-27T11:28:37;2.63;;;1.40;;
12567;SDS011;6349;50.904;6.136;2022-09-27T11:38:43;3.47;;;1.10;;
12567;SDS011;6349;50.904;6.136;2022-09-27T11:43:43;1.03;;;0.93;;
12567;SDS011;6349;50.904;6.136;2022-09-27T11:46:16;2.13;;;1.13;;
12567;SDS011;6349;50.904;6.136;2022-09-27T11:59:02;1.20;;;1.10;;
12567;SDS011;6349;50.904;6.136;2022-09-27T12:01:19;1.37;;;1.00;;
12567;SDS011;6349;50.904;6.136;2022-09-27T12:03:39;1.13;;;1.03;;
12567;SDS011;6349;50.904;6.136;2022-09-27T12:06:10;2.00;;;1.20;;
12567;SDS011;6349;50.904;6.136;2022-09-27T12:08:35;2.43;;;1.20;;
12567;SDS011;6349;50.904;6.136;2022-09-27T12:11:02;1.73;;;1.50;;
12567;SDS011;6349;50.904;6.136;2022-09-27T12:13:12;2.67;;;1.17;;
12567;SDS011;6349;50.904;6.136;2022-09-27T12:15:16;1.53;;;1.20;;
12567;SDS011;6349;50.904;6.136;2022-09-27T12:17:25;1.30;;;1.20;;
12567;SDS011;6349;50.904;6.136;2022-09-27T12:19:33;1.33;;;1.20;;
12567;SDS011;6349;50.904;6.136;2022-09-27T12:21:37;1.53;;;1.10;;
12567;SDS011;6349;50.904;6.136;2022-09-27T12:23:42;1.27;;;0.70;;
12567;SDS011;6349;50.904;6.136;2022-09-27T12:25:49;0.87;;;0.50;;
12567;SDS011;6349;50.904;6.136;2022-09-27T12:28:04;0.30;;;0.30;;
12567;SDS011;6349;50.904;6.136;2022-09-27T12:30:11;2.40;;;0.50;;
12567;SDS011;6349;50.904;6.136;2022-09-27T12:32:16;0.30;;;0.23;;
12567;SDS011;6349;50.904;6.136;2022-09-27T12:34:29;0.43;;;0.40;;
12567;SDS011;6349;50.904;6.136;2022-09-27T12:36:45;0.70;;;0.60;;
12567;SDS011;6349;50.904;6.136;2022-09-27T12:38:55;0.73;;;0.70;;
12567;SDS011;6349;50.904;6.136;2022-09-27T12:41:01;0.77;;;0.50;;
12567;SDS011;6349;50.904;6.136;2022-09-27T12:43:08;0.40;;;0.40;;
12567;SDS011;6349;50.904;6.136;2022-09-27T12:45:26;1.00;;;0.60;;
12567;SDS011;6349;50.904;6.136;2022-09-27T12:48:00;0.80;;;0.50;;
12567;SDS011;6349;50.904;6.136;2022-09-27T12:52:39;1.30;;;0.50;;
12567;SDS011;6349;50.904;6.136;2022-09-27T12:55:04;1.47;;;0.60;;
12567;SDS011;6349;50.904;6.136;2022-09-27T13:00:11;2.33;;;0.90;;
12567;SDS011;6349;50.904;6.136;2022-09-27T13:07:49;1.97;;;0.67;;
12567;SDS011;6349;50.904;6.136;2022-09-27T13:12:28;1.83;;;0.73;;
12567;SDS011;6349;50.904;6.136;2022-09-27T13:14:33;1.13;;;0.70;;
12567;SDS011;6349;50.904;6.136;2022-09-27T13:16:41;1.33;;;0.80;;
12567;SDS011;6349;50.904;6.136;2022-09-27T13:20:58;3.30;;;0.83;;
12567;SDS011;6349;50.904;6.136;2022-09-27T13:22:59;1.43;;;0.80;;
12567;SDS011;6349;50.904;6.136;2022-09-27T13:25:02;1.47;;;0.73;;
12567;SDS011;6349;50.904;6.136;2022-09-27T13:29:33;1.60;;;0.80;;
12567;SDS011;6349;50.904;6.136;2022-09-27T13:32:14;2.10;;;1.17;;
12567;SDS011;6349;50.904;6.136;2022-09-27T13:33:58;1.23;;;0.73;;
12567;SDS011;6349;50.904;6.136;2022-09-27T13:36:12;1.90;;;0.93;;
12567;SDS011;6349;50.904;6.136;2022-09-27T13:38:20;2.63;;;1.00;;
12567;SDS011;6349;50.904;6.136;2022-09-27T13:40:24;1.13;;;0.70;;
12567;SDS011;6349;50.904;6.136;2022-09-27T13:42:34;2.77;;;1.00;;
12567;SDS011;6349;50.904;6.136;2022-09-27T13:44:48;1.77;;;0.90;;
12567;SDS011;6349;50.904;6.136;2022-09-27T13:47:04;2.33;;;1.00;;
12567;SDS011;6349;50.904;6.136;2022-09-27T13:49:35;2.17;;;1.07;;
12567;SDS011;6349;50.904;6.136;2022-09-27T13:51:42;1.93;;;1.00;;
12567;SDS011;6349;50.904;6.136;2022-09-27T13:53:58;1.60;;;0.93;;
12567;SDS011;6349;50.904;6.136;2022-09-27T13:56:02;2.20;;;1.00;;
12567;SDS011;6349;50.904;6.136;2022-09-27T13:58:04;2.37;;;0.93;;
12567;SDS011;6349;50.904;6.136;2022-09-27T14:00:37;2.17;;;1.20;;
12567;SDS011;6349;50.904;6.136;2022-09-27T14:03:05;2.57;;;1.30;;
12567;SDS011;6349;50.904;6.136;2022-09-27T14:05:06;4.23;;;0.80;;
12567;SDS011;6349;50.904;6.136;2022-09-27T14:07:13;4.07;;;0.93;;
12567;SDS011;6349;50.904;6.136;2022-09-27T14:09:18;0.40;;;0.40;;
12567;SDS011;6349;50.904;6.136;2022-09-27T14:11:26;1.13;;;0.40;;
12567;SDS011;6349;50.904;6.136;2022-09-27T14:13:29;0.80;;;0.43;;
12567;SDS011;6349;50.904;6.136;2022-09-27T14:15:31;1.90;;;0.60;;
12567;SDS011;6349;50.904;6.136;2022-09-27T14:17:33;0.70;;;0.47;;
12567;SDS011;6349;50.904;6.136;2022-09-27T14:19:37;0.97;;;0.50;;
12567;SDS011;6349;50.904;6.136;2022-09-27T14:21:40;1.07;;;0.50;;
12567;SDS011;6349;50.904;6.136;2022-09-27T14:23:42;0.70;;;0.40;;
12567;SDS011;6349;50.904;6.136;2022-09-27T14:25:45;0.87;;;0.57;;
12567;SDS011;6349;50.904;6.136;2022-09-27T14:27:47;1.97;;;0.60;;